Time;durP1;ratioP1;P1;durP2;ratioP2;P2;SDS_P1;SDS_P2;PMS_P1;PMS_P2;Temp;Humidity;BMP_temperature;BMP_pressure;BME280_temperature;BME280_humidity;BME280_pressure;Samples;Min_cycle;Max_cycle;Signal;HPM_P1;HPM_P2
2021/11/29 00:00:56;;;;;;;;;;;19.80;99.90;;;;;;5058707;28;19921;-73
2021/11/29 00:03:23;;;;;;;;;;;19.80;99.90;;;;;;5066628;28;19964;-69
2021/11/29 00:05:50;;;;;;;;;;;19.70;99.90;;;;;;5065866;28;19917;-67
2021/11/29 00:08:16;;;;;;;;;;;19.80;99.90;;;;;;5054305;28;20363;-67
2021/11/29 00:10:43;;;;;;;;;;;19.80;99.90;;;;;;5063033;28;19927;-71
2021/11/29 00:13:10;;;;;;;;;;;19.90;99.90;;;;;;5057000;28;19948;-67
2021/11/29 00:15:37;;;;;;;;;;;19.80;99.90;;;;;;5058067;28;20245;-69
2021/11/29 00:18:03;;;;;;;;;;;19.90;99.90;;;;;;5062448;28;19913;-68
2021/11/29 00:20:30;;;;;;;;;;;19.80;99.90;;;;;;5059071;28;19979;-68
2021/11/29 00:22:57;;;;;;;;;;;19.80;99.90;;;;;;5063134;28;19943;-73
2021/11/29 00:25:24;;;;;;;;;;;19.60;99.90;;;;;;5053413;28;19913;-72
2021/11/29 00:27:51;;;;;;;;;;;19.50;99.90;;;;;;5065227;28;20007;-70
2021/11/29 00:30:18;;;;;;;;;;;19.60;99.90;;;;;;5062851;28;20262;-70
2021/11/29 00:32:44;;;;;;;;;;;19.80;99.90;;;;;;5058943;28;19912;-70
2021/11/29 00:35:11;;;;;;;;;;;19.90;99.90;;;;;;5060550;28;20295;-70
2021/11/29 00:37:38;;;;;;;;;;;20.20;99.90;;;;;;5063833;28;19916;-69
2021/11/29 00:40:06;;;;;;;;;;;20.30;99.90;;;;;;5054360;28;20287;-69
2021/11/29 00:42:33;;;;;;;;;;;20.40;99.90;;;;;;5054519;28;19924;-68
2021/11/29 00:45:00;;;;;;;;;;;20.50;99.90;;;;;;5062829;28;19917;-72
2021/11/29 00:47:27;;;;;;;;;;;20.50;99.90;;;;;;5056417;28;20387;-68
2021/11/29 00:49:53;;;;;;;;;;;20.50;99.90;;;;;;5061034;28;19913;-67
2021/11/29 00:52:20;;;;;;;;;;;20.50;99.90;;;;;;5062955;28;19916;-73
2021/11/29 00:54:47;;;;;;;;;;;20.50;99.90;;;;;;5057425;28;20003;-71
2021/11/29 00:57:13;;;;;;;;;;;20.60;99.90;;;;;;5065420;28;19912;-67
2021/11/29 00:59:46;;;;;;;;;;;20.90;99.90;;;;;;5068026;28;19935;-67
2021/11/29 01:02:13;;;;;;;;;;;20.80;99.90;;;;;;5058272;28;20423;-67
2021/11/29 01:04:40;;;;;;;;;;;20.70;99.90;;;;;;5063990;28;20005;-68
2021/11/29 01:07:07;;;;;;;;;;;20.60;99.90;;;;;;5067314;28;20367;-69
2021/11/29 01:09:34;;;;;;;;;;;20.70;99.90;;;;;;5067579;28;19960;-72
2021/11/29 01:12:01;;;;;;;;;;;20.40;99.90;;;;;;5071312;28;19913;-68
2021/11/29 01:14:28;;;;;;;;;;;20.40;99.90;;;;;;5066771;28;19908;-69
2021/11/29 01:16:54;;;;;;;;;;;20.20;99.90;;;;;;5066317;28;20351;-71
2021/11/29 01:19:21;;;;;;;;;;;20.20;99.90;;;;;;5059654;28;19919;-72
2021/11/29 01:21:48;;;;;;;;;;;20.20;99.90;;;;;;5065016;28;19920;-70
2021/11/29 01:24:14;;;;;;;;;;;20.40;99.90;;;;;;5064838;28;19931;-74
2021/11/29 01:26:41;;;;;;;;;;;20.70;99.90;;;;;;5066516;28;19912;-70
2021/11/29 01:29:08;;;;;;;;;;;21.00;99.90;;;;;;5064629;28;19912;-68
2021/11/29 01:31:34;;;;;;;;;;;21.70;99.90;;;;;;5060593;28;19963;-70
2021/11/29 01:34:01;;;;;;;;;;;21.70;99.90;;;;;;5069440;28;20278;-73
2021/11/29 01:36:28;;;;;;;;;;;22.00;99.90;;;;;;5065524;28;19917;-68
2021/11/29 01:38:54;;;;;;;;;;;22.20;99.90;;;;;;5064879;28;19999;-70
2021/11/29 01:41:21;;;;;;;;;;;21.80;99.90;;;;;;5066126;28;19929;-69
2021/11/29 01:43:49;;;;;;;;;;;21.50;99.90;;;;;;5057820;28;19940;-71
2021/11/29 01:46:19;;;;;;;;;;;21.10;99.90;;;;;;5065785;28;20244;-71
2021/11/29 01:48:46;;;;;;;;;;;20.90;99.90;;;;;;5056566;28;19917;-73
2021/11/29 01:51:12;;;;;;;;;;;20.80;99.90;;;;;;5058256;28;19978;-69
2021/11/29 01:53:39;;;;;;;;;;;20.50;99.90;;;;;;5062668;28;19958;-69
2021/11/29 01:56:06;;;;;;;;;;;20.40;99.90;;;;;;5059484;28;20324;-69
2021/11/29 01:58:35;;;;;;;;;;;20.40;99.90;;;;;;5057892;28;20251;-71
2021/11/29 02:01:03;;;;;;;;;;;20.30;99.90;;;;;;5065778;28;19955;-71
2021/11/29 02:03:30;;;;;;;;;;;20.20;99.90;;;;;;5056157;28;19960;-68
2021/11/29 02:05:58;;;;;;;;;;;20.30;99.90;;;;;;5065049;28;20379;-71
2021/11/29 02:08:25;;;;;;;;;;;20.30;99.90;;;;;;5059119;28;19913;-72
2021/11/29 02:10:52;;;;;;;;;;;20.30;99.90;;;;;;5065985;28;20278;-67
2021/11/29 02:13:19;;;;;;;;;;;20.10;99.90;;;;;;5064582;28;19924;-70
2021/11/29 02:15:55;;;;;;;;;;;20.10;99.90;;;;;;5067956;28;19917;-69
2021/11/29 02:18:25;;;;;;;;;;;20.10;99.90;;;;;;5067036;28;19912;-69
2021/11/29 02:21:18;;;;;;;;;;;20.20;99.90;;;;;;5060756;28;19943;-68
2021/11/29 02:23:47;;;;;;;;;;;20.30;99.90;;;;;;5045775;28;20406;-69
2021/11/29 02:26:14;;;;;;;;;;;20.40;99.90;;;;;;5067489;28;19920;-69
2021/11/29 02:28:42;;;;;;;;;;;20.60;99.90;;;;;;5066052;28;19920;-73
2021/11/29 02:31:09;;;;;;;;;;;20.60;99.90;;;;;;5062289;28;19919;-69
2021/11/29 02:33:36;;;;;;;;;;;20.50;99.90;;;;;;5057074;28;19952;-70
2021/11/29 02:36:03;;;;;;;;;;;20.70;99.90;;;;;;5064448;28;19942;-72
2021/11/29 02:38:31;;;;;;;;;;;20.60;99.90;;;;;;5064810;28;19923;-72
2021/11/29 02:40:57;;;;;;;;;;;20.70;99.90;;;;;;5055207;28;19991;-70
2021/11/29 02:43:25;;;;;;;;;;;20.50;99.90;;;;;;5066557;28;19927;-72
2021/11/29 02:45:52;;;;;;;;;;;20.50;99.90;;;;;;5063226;28;20450;-67
2021/11/29 02:48:19;;;;;;;;;;;20.30;99.90;;;;;;5063660;28;19912;-70
2021/11/29 02:50:45;;;;;;;;;;;20.50;99.90;;;;;;5082926;28;19913;-66
2021/11/29 02:53:13;;;;;;;;;;;20.30;99.90;;;;;;5066791;28;19942;-72
2021/11/29 02:55:40;;;;;;;;;;;20.30;99.90;;;;;;5070265;28;20321;-72
2021/11/29 02:58:07;;;;;;;;;;;20.40;99.90;;;;;;5066110;28;20375;-66
2021/11/29 03:00:34;;;;;;;;;;;20.40;99.90;;;;;;5055337;28;20036;-73
2021/11/29 03:03:09;;;;;;;;;;;20.30;99.90;;;;;;5057127;28;19927;-71
2021/11/29 03:05:36;;;;;;;;;;;20.40;99.90;;;;;;5059435;28;19913;-71
2021/11/29 03:08:04;;;;;;;;;;;20.50;99.90;;;;;;5065242;28;20428;-72
2021/11/29 03:10:31;;;;;;;;;;;20.60;99.90;;;;;;5062463;28;19917;-74
2021/11/29 03:12:58;;;;;;;;;;;20.50;99.90;;;;;;5064299;28;19913;-72
2021/11/29 03:15:25;;;;;;;;;;;20.50;99.90;;;;;;5069088;28;20271;-70
2021/11/29 03:17:52;;;;;;;;;;;20.50;99.90;;;;;;5067723;28;19928;-69
2021/11/29 03:20:19;;;;;;;;;;;20.40;99.90;;;;;;5062845;28;19921;-70
2021/11/29 03:22:45;;;;;;;;;;;20.50;99.90;;;;;;5081877;28;19913;-71
2021/11/29 03:25:12;;;;;;;;;;;20.50;99.90;;;;;;5065460;28;20419;-73
2021/11/29 03:27:40;;;;;;;;;;;20.70;99.90;;;;;;5058371;28;19958;-70
2021/11/29 03:30:08;;;;;;;;;;;20.70;99.90;;;;;;5064557;28;20054;-68
2021/11/29 03:32:37;;;;;;;;;;;20.80;99.90;;;;;;5061949;28;19912;-67
2021/11/29 03:35:05;;;;;;;;;;;20.90;99.90;;;;;;5064552;28;19913;-71
2021/11/29 03:37:31;;;;;;;;;;;20.90;99.90;;;;;;5057108;28;19919;-72
2021/11/29 03:39:58;;;;;;;;;;;21.00;99.90;;;;;;5062154;28;19920;-72
2021/11/29 03:42:25;;;;;;;;;;;21.00;99.90;;;;;;5067474;28;19916;-75
2021/11/29 03:44:52;;;;;;;;;;;21.00;99.90;;;;;;5064988;28;19924;-73
2021/11/29 03:47:18;;;;;;;;;;;21.00;99.90;;;;;;5062275;28;19913;-74
2021/11/29 03:49:45;;;;;;;;;;;20.80;99.90;;;;;;5063011;28;19917;-70
2021/11/29 03:52:12;;;;;;;;;;;20.80;99.90;;;;;;5066881;28;19919;-69
2021/11/29 03:54:39;;;;;;;;;;;20.70;99.90;;;;;;5081402;28;20066;-73
2021/11/29 03:57:06;;;;;;;;;;;20.70;99.90;;;;;;5064014;28;19912;-74
2021/11/29 03:59:35;;;;;;;;;;;20.70;99.90;;;;;;5064142;28;19931;-72
2021/11/29 04:02:02;;;;;;;;;;;20.50;99.90;;;;;;5054239;28;19923;-72
2021/11/29 04:04:28;;;;;;;;;;;20.40;99.90;;;;;;5063406;28;20043;-73
2021/11/29 04:06:55;;;;;;;;;;;20.40;99.90;;;;;;5057139;28;19943;-71
2021/11/29 04:09:22;;;;;;;;;;;20.30;99.90;;;;;;5060312;28;19932;-74
2021/11/29 04:11:48;;;;;;;;;;;20.20;99.90;;;;;;5060022;28;19916;-74
2021/11/29 04:14:15;;;;;;;;;;;20.00;99.90;;;;;;5063399;28;19916;-73
2021/11/29 04:16:42;;;;;;;;;;;19.90;99.90;;;;;;5064535;28;19975;-75
2021/11/29 04:19:09;;;;;;;;;;;19.90;99.90;;;;;;5068286;28;19913;-75
2021/11/29 04:21:35;;;;;;;;;;;19.80;99.90;;;;;;5055945;28;19982;-73
2021/11/29 04:24:02;;;;;;;;;;;19.90;99.90;;;;;;5053408;28;19919;-74
2021/11/29 04:26:30;;;;;;;;;;;19.90;99.90;;;;;;5056000;28;19927;-74
2021/11/29 04:28:56;;;;;;;;;;;19.90;99.90;;;;;;5061622;28;19958;-75
2021/11/29 04:31:23;;;;;;;;;;;19.80;99.90;;;;;;5064191;28;20579;-75
2021/11/29 04:33:50;;;;;;;;;;;19.90;99.90;;;;;;5057649;28;19920;-75
2021/11/29 04:36:17;;;;;;;;;;;20.00;99.90;;;;;;5066912;28;19913;-72
2021/11/29 04:38:43;;;;;;;;;;;20.00;99.90;;;;;;5067411;28;20379;-75
2021/11/29 04:41:10;;;;;;;;;;;19.90;99.90;;;;;;5066206;28;20018;-76
2021/11/29 04:43:37;;;;;;;;;;;19.80;99.90;;;;;;5068237;28;19920;-75
2021/11/29 04:46:03;;;;;;;;;;;19.80;99.90;;;;;;5063452;28;20481;-69
2021/11/29 04:48:30;;;;;;;;;;;19.70;99.90;;;;;;5068478;28;19939;-73
2021/11/29 04:50:57;;;;;;;;;;;19.70;99.90;;;;;;5062535;28;20290;-73
2021/11/29 04:53:23;;;;;;;;;;;19.70;99.90;;;;;;5068042;28;19993;-70
2021/11/29 04:55:50;;;;;;;;;;;19.70;99.90;;;;;;5058988;28;19917;-68
2021/11/29 04:58:17;;;;;;;;;;;19.70;99.90;;;;;;5059675;28;20290;-73
2021/11/29 05:00:48;;;;;;;;;;;19.70;99.90;;;;;;5065336;28;20370;-68
2021/11/29 05:03:15;;;;;;;;;;;19.70;99.90;;;;;;5065770;28;19916;-68
2021/11/29 05:05:41;;;;;;;;;;;19.70;99.90;;;;;;5065031;28;19921;-69
2021/11/29 05:08:08;;;;;;;;;;;19.70;99.90;;;;;;5066486;28;20546;-73
2021/11/29 05:10:35;;;;;;;;;;;19.70;99.90;;;;;;5057035;28;19920;-72
2021/11/29 05:13:01;;;;;;;;;;;19.80;99.90;;;;;;5066758;28;19912;-76
2021/11/29 05:15:28;;;;;;;;;;;19.60;99.90;;;;;;5060917;28;19921;-73
2021/11/29 05:17:55;;;;;;;;;;;19.50;99.90;;;;;;5062361;28;20354;-72
2021/11/29 05:20:21;;;;;;;;;;;19.30;99.90;;;;;;5067864;28;19917;-73
2021/11/29 05:22:49;;;;;;;;;;;19.20;99.90;;;;;;5083838;28;19928;-73
2021/11/29 05:25:16;;;;;;;;;;;19.10;99.90;;;;;;5068198;28;19916;-74
2021/11/29 05:27:42;;;;;;;;;;;19.20;99.90;;;;;;5063962;28;19913;-72
2021/11/29 05:30:09;;;;;;;;;;;19.30;99.90;;;;;;5067217;28;20277;-71
2021/11/29 05:32:37;;;;;;;;;;;19.20;99.90;;;;;;5065774;28;19919;-72
2021/11/29 05:35:04;;;;;;;;;;;19.30;99.90;;;;;;5064917;28;20349;-71
2021/11/29 05:37:30;;;;;;;;;;;19.30;99.90;;;;;;5070066;28;19916;-70
2021/11/29 05:39:57;;;;;;;;;;;19.30;99.90;;;;;;5067988;28;19924;-72
2021/11/29 05:42:24;;;;;;;;;;;19.40;99.90;;;;;;5069504;28;19920;-69
2021/11/29 05:44:51;;;;;;;;;;;19.40;99.90;;;;;;5061042;28;20286;-73
2021/11/29 05:47:18;;;;;;;;;;;19.50;99.90;;;;;;5066288;28;19920;-75
2021/11/29 05:49:45;;;;;;;;;;;19.50;99.90;;;;;;5060547;28;19948;-76
2021/11/29 05:52:12;;;;;;;;;;;19.60;99.90;;;;;;5060081;28;20375;-75
2021/11/29 05:54:39;;;;;;;;;;;19.60;99.90;;;;;;5077538;28;20354;-74
2021/11/29 05:57:05;;;;;;;;;;;19.70;99.90;;;;;;5057482;28;19995;-71
2021/11/29 05:59:32;;;;;;;;;;;19.70;99.90;;;;;;5059784;28;19913;-69
2021/11/29 06:01:59;;;;;;;;;;;19.70;99.90;;;;;;5056145;28;20471;-72
2021/11/29 06:04:26;;;;;;;;;;;19.60;99.90;;;;;;5061719;28;19920;-75
2021/11/29 06:06:52;;;;;;;;;;;19.60;99.90;;;;;;5059399;28;19920;-76
2021/11/29 06:09:36;;;;;;;;;;;19.60;99.90;;;;;;5106006;27;19920;-70
2021/11/29 06:12:03;;;;;;;;;;;19.50;99.90;;;;;;5086386;28;19994;-69
2021/11/29 06:14:29;;;;;;;;;;;19.60;99.90;;;;;;5087228;28;19913;-71
2021/11/29 06:16:56;;;;;;;;;;;19.60;99.90;;;;;;5085101;28;19981;-75
2021/11/29 06:19:26;;;;;;;;;;;19.60;99.90;;;;;;5093497;28;20358;-69
2021/11/29 06:21:52;;;;;;;;;;;19.60;99.90;;;;;;5086551;28;19920;-70
2021/11/29 06:24:19;;;;;;;;;;;19.60;99.90;;;;;;5085869;28;19912;-71
2021/11/29 06:26:46;;;;;;;;;;;19.50;99.90;;;;;;5085351;28;19989;-74
2021/11/29 06:29:13;;;;;;;;;;;19.40;99.90;;;;;;5086948;28;19924;-73
2021/11/29 06:31:41;;;;;;;;;;;19.40;99.90;;;;;;5086483;28;19999;-68
2021/11/29 06:34:08;;;;;;;;;;;19.40;99.90;;;;;;5084416;28;20366;-70
2021/11/29 06:36:35;;;;;;;;;;;19.40;99.90;;;;;;5094520;28;19959;-70
2021/11/29 06:39:01;;;;;;;;;;;19.40;99.90;;;;;;5085129;28;19921;-76
2021/11/29 06:41:28;;;;;;;;;;;19.30;99.90;;;;;;5085509;28;19912;-74
2021/11/29 06:43:55;;;;;;;;;;;19.20;99.90;;;;;;5084814;28;19916;-74
2021/11/29 06:46:22;;;;;;;;;;;19.30;99.90;;;;;;5086491;28;20323;-67
2021/11/29 06:48:49;;;;;;;;;;;19.30;99.90;;;;;;5084834;28;19951;-73
2021/11/29 06:51:16;;;;;;;;;;;19.20;99.90;;;;;;5083615;28;19960;-71
2021/11/29 06:53:43;;;;;;;;;;;19.20;99.90;;;;;;5089413;28;20018;-68
2021/11/29 06:56:10;;;;;;;;;;;19.20;99.90;;;;;;5083717;28;19963;-69
2021/11/29 06:58:37;;;;;;;;;;;19.10;99.90;;;;;;5084365;28;19917;-73
2021/11/29 07:01:05;;;;;;;;;;;19.10;99.90;;;;;;5085027;28;19917;-69
2021/11/29 07:03:32;;;;;;;;;;;19.20;99.90;;;;;;5085074;28;19923;-69
2021/11/29 07:05:59;;;;;;;;;;;19.30;99.90;;;;;;5076561;28;19912;-69
2021/11/29 07:08:25;;;;;;;;;;;19.20;99.90;;;;;;5084542;28;19967;-73
2021/11/29 07:10:52;;;;;;;;;;;19.10;99.90;;;;;;5084930;28;19916;-75
2021/11/29 07:13:19;;;;;;;;;;;19.20;99.90;;;;;;5085054;28;20437;-67
2021/11/29 07:15:46;;;;;;;;;;;19.10;99.90;;;;;;5083850;28;19928;-67
2021/11/29 07:18:13;;;;;;;;;;;19.10;99.90;;;;;;5084504;28;19913;-70
2021/11/29 07:20:40;;;;;;;;;;;19.20;99.90;;;;;;5073130;28;19916;-68
2021/11/29 07:23:07;;;;;;;;;;;19.10;99.90;;;;;;5071836;28;19927;-70
2021/11/29 07:25:34;;;;;;;;;;;19.20;99.90;;;;;;5072262;28;19920;-70
2021/11/29 07:28:01;;;;;;;;;;;19.20;99.90;;;;;;5078322;28;19923;-75
2021/11/29 07:30:28;;;;;;;;;;;19.10;99.90;;;;;;5070773;28;19931;-72
2021/11/29 07:32:56;;;;;;;;;;;19.10;99.90;;;;;;5070975;28;20826;-68
2021/11/29 07:35:23;;;;;;;;;;;19.20;99.90;;;;;;5070079;28;20362;-67
2021/11/29 07:37:50;;;;;;;;;;;19.10;99.90;;;;;;5072093;28;19917;-73
2021/11/29 07:40:17;;;;;;;;;;;19.10;99.90;;;;;;5070508;28;19921;-75
2021/11/29 07:42:44;;;;;;;;;;;19.10;99.90;;;;;;5076164;28;20008;-76
2021/11/29 07:45:14;;;;;;;;;;;19.10;99.90;;;;;;5073837;28;19916;-69
2021/11/29 07:47:41;;;;;;;;;;;19.00;99.90;;;;;;5070585;28;19920;-73
2021/11/29 07:50:09;;;;;;;;;;;19.00;99.90;;;;;;5066505;28;19924;-70
2021/11/29 07:52:36;;;;;;;;;;;19.00;99.90;;;;;;5071085;28;20339;-73
2021/11/29 07:55:07;;;;;;;;;;;18.90;99.90;;;;;;5072047;28;19912;-73
2021/11/29 07:57:34;;;;;;;;;;;18.90;99.90;;;;;;5070366;28;19913;-72
2021/11/29 08:00:05;;;;;;;;;;;18.90;99.90;;;;;;5070837;28;19961;-70
2021/11/29 08:02:32;;;;;;;;;;;18.90;99.90;;;;;;5079453;28;19989;-71
2021/11/29 08:04:59;;;;;;;;;;;18.90;99.90;;;;;;5070509;28;20082;-71
2021/11/29 08:07:26;;;;;;;;;;;18.80;99.90;;;;;;5071928;28;19916;-71
2021/11/29 08:09:53;;;;;;;;;;;18.80;99.90;;;;;;5071786;28;19936;-71
2021/11/29 08:12:20;;;;;;;;;;;18.80;99.90;;;;;;5072978;28;19913;-69
2021/11/29 08:14:48;;;;;;;;;;;18.80;99.90;;;;;;5072309;28;20388;-68
2021/11/29 08:17:14;;;;;;;;;;;18.80;99.90;;;;;;5072007;28;19931;-72
2021/11/29 08:19:41;;;;;;;;;;;18.80;99.90;;;;;;5079588;28;19935;-72
2021/11/29 08:22:08;;;;;;;;;;;18.80;99.90;;;;;;5073567;28;19912;-72
2021/11/29 08:24:36;;;;;;;;;;;18.80;99.90;;;;;;5071806;28;19987;-73
2021/11/29 08:27:06;;;;;;;;;;;18.80;99.90;;;;;;5074064;28;19967;-75
2021/11/29 08:29:33;;;;;;;;;;;18.70;99.90;;;;;;5064575;28;20333;-76
2021/11/29 08:32:00;;;;;;;;;;;18.70;99.90;;;;;;5071499;28;20312;-75
2021/11/29 08:34:27;;;;;;;;;;;18.70;99.90;;;;;;5072539;28;19913;-73
2021/11/29 08:36:57;;;;;;;;;;;18.70;99.90;;;;;;5072273;28;20286;-75
2021/11/29 08:39:25;;;;;;;;;;;18.70;99.90;;;;;;5070354;28;19926;-74
2021/11/29 08:41:51;;;;;;;;;;;18.70;99.90;;;;;;5071698;28;19912;-75
2021/11/29 08:44:18;;;;;;;;;;;18.70;99.90;;;;;;5071503;28;19958;-73
2021/11/29 08:46:48;;;;;;;;;;;18.70;99.90;;;;;;5071373;28;19919;-77
2021/11/29 08:49:16;;;;;;;;;;;18.70;99.90;;;;;;5064067;28;20346;-73
2021/11/29 08:51:43;;;;;;;;;;;18.70;99.90;;;;;;5070425;28;19913;-75
2021/11/29 08:54:14;;;;;;;;;;;18.60;99.90;;;;;;5072549;28;20016;-74
2021/11/29 08:56:41;;;;;;;;;;;18.60;99.90;;;;;;5077918;28;19939;-76
2021/11/29 08:59:08;;;;;;;;;;;18.60;99.90;;;;;;5067754;28;19916;-73
2021/11/29 09:01:35;;;;;;;;;;;18.60;99.90;;;;;;5067017;28;20248;-70
2021/11/29 09:04:02;;;;;;;;;;;18.60;99.90;;;;;;5069060;28;20431;-72
2021/11/29 09:06:29;;;;;;;;;;;18.60;99.90;;;;;;5070422;28;19912;-75
2021/11/29 09:08:55;;;;;;;;;;;18.60;99.90;;;;;;5066994;28;19920;-74
2021/11/29 09:11:22;;;;;;;;;;;18.60;99.90;;;;;;5075331;28;19912;-76
2021/11/29 09:13:49;;;;;;;;;;;18.60;99.90;;;;;;5071179;28;20450;-69
2021/11/29 09:16:16;;;;;;;;;;;18.50;99.90;;;;;;5068907;28;20011;-72
2021/11/29 09:18:44;;;;;;;;;;;18.50;99.90;;;;;;5069476;28;19948;-73
2021/11/29 09:21:11;;;;;;;;;;;18.50;99.90;;;;;;5069222;28;19947;-74
2021/11/29 09:23:39;;;;;;;;;;;18.50;99.90;;;;;;5070021;28;19977;-72
2021/11/29 09:26:06;;;;;;;;;;;18.40;99.90;;;;;;5067148;28;20806;-74
2021/11/29 09:28:34;;;;;;;;;;;18.40;99.90;;;;;;5077629;28;19986;-75
2021/11/29 09:31:01;;;;;;;;;;;18.40;99.90;;;;;;5068425;28;20405;-75
2021/11/29 09:33:27;;;;;;;;;;;18.30;99.90;;;;;;5068609;28;19917;-69
2021/11/29 09:35:54;;;;;;;;;;;18.40;99.90;;;;;;5068344;28;19916;-70
2021/11/29 09:38:21;;;;;;;;;;;18.40;99.90;;;;;;5070191;28;20035;-72
2021/11/29 09:40:47;;;;;;;;;;;18.40;99.90;;;;;;5068971;28;19912;-72
2021/11/29 09:43:15;;;;;;;;;;;18.30;99.90;;;;;;5068227;28;19916;-77
2021/11/29 09:45:43;;;;;;;;;;;18.30;99.90;;;;;;5068360;28;19947;-73
2021/11/29 09:48:11;;;;;;;;;;;18.30;99.90;;;;;;5067727;28;19920;-76
2021/11/29 09:50:40;;;;;;;;;;;18.30;99.90;;;;;;5068380;28;19913;-75
2021/11/29 09:53:07;;;;;;;;;;;18.30;99.90;;;;;;5069463;28;19946;-70
2021/11/29 09:55:34;;;;;;;;;;;18.30;99.90;;;;;;5069020;28;19920;-71
2021/11/29 09:58:01;;;;;;;;;;;18.30;99.90;;;;;;5068505;28;19999;-68
2021/11/29 10:00:31;;;;;;;;;;;18.30;99.90;;;;;;5071608;28;19970;-69
2021/11/29 10:03:01;;;;;;;;;;;18.30;99.90;;;;;;5068168;28;19986;-68
2021/11/29 10:05:28;;;;;;;;;;;18.30;99.90;;;;;;5068209;28;19923;-68
2021/11/29 10:07:55;;;;;;;;;;;18.30;99.90;;;;;;5068537;28;20039;-72
2021/11/29 10:10:24;;;;;;;;;;;18.30;99.90;;;;;;5070462;28;20015;-70
2021/11/29 10:13:11;;;;;;;;;;;18.30;99.90;;;;;;5068358;28;19916;-74
2021/11/29 10:15:41;;;;;;;;;;;18.40;99.90;;;;;;5067356;28;19913;-68
2021/11/29 10:18:10;;;;;;;;;;;18.40;99.90;;;;;;5076718;28;19916;-70
2021/11/29 10:20:55;;;;;;;;;;;18.40;99.90;;;;;;5067799;28;20418;-70
2021/11/29 10:23:33;;;;;;;;;;;18.40;99.90;;;;;;5065368;28;19923;-75
2021/11/29 10:26:00;;;;;;;;;;;18.50;99.90;;;;;;5068803;28;19912;-76
2021/11/29 10:28:28;;;;;;;;;;;18.50;99.90;;;;;;5069464;28;19921;-72
2021/11/29 10:31:24;;;;;;;;;;;18.60;99.90;;;;;;5067736;28;20031;-75
2021/11/29 10:33:52;;;;;;;;;;;18.50;99.90;;;;;;5062974;28;19919;-70
2021/11/29 10:36:20;;;;;;;;;;;18.60;99.90;;;;;;5067659;28;19959;-74
2021/11/29 10:38:50;;;;;;;;;;;18.50;99.90;;;;;;5068280;28;19921;-74
2021/11/29 10:41:24;;;;;;;;;;;18.60;99.90;;;;;;5068031;28;19962;-72
2021/11/29 10:43:51;;;;;;;;;;;18.60;99.90;;;;;;5067551;28;19920;-74
2021/11/29 10:46:28;;;;;;;;;;;18.60;99.90;;;;;;5067333;28;20010;-71
2021/11/29 10:48:57;;;;;;;;;;;18.60;99.90;;;;;;5067751;28;19936;-74
2021/11/29 10:51:25;;;;;;;;;;;18.60;99.90;;;;;;5067850;28;19920;-75
2021/11/29 10:53:54;;;;;;;;;;;18.60;99.90;;;;;;5066013;28;20322;-76
2021/11/29 10:56:21;;;;;;;;;;;18.60;99.90;;;;;;5069344;28;19938;-75
2021/11/29 10:58:48;;;;;;;;;;;18.60;99.90;;;;;;5071586;28;20309;-76
2021/11/29 11:01:16;;;;;;;;;;;18.60;99.90;;;;;;5072076;28;20374;-75
2021/11/29 11:03:54;;;;;;;;;;;18.60;99.90;;;;;;5071492;28;19913;-72
2021/11/29 11:06:26;;;;;;;;;;;18.60;99.90;;;;;;5071670;28;19913;-77
2021/11/29 11:08:54;;;;;;;;;;;18.60;99.90;;;;;;5059394;28;20341;-73
2021/11/29 11:11:31;;;;;;;;;;;18.60;99.90;;;;;;5054011;28;19917;-76
2021/11/29 11:14:09;;;;;;;;;;;18.60;99.90;;;;;;5051515;28;19944;-68
2021/11/29 11:16:40;;;;;;;;;;;18.60;99.90;;;;;;5046250;28;19924;-73
2021/11/29 11:19:27;;;;;;;;;;;18.60;99.90;;;;;;5052146;28;19913;-73
2021/11/29 11:21:55;;;;;;;;;;;18.60;99.90;;;;;;5044002;28;19917;-75
2021/11/29 11:24:24;;;;;;;;;;;18.60;99.90;;;;;;5054095;28;19956;-72
2021/11/29 11:26:56;;;;;;;;;;;18.60;99.90;;;;;;5053450;28;19917;-72
2021/11/29 11:29:41;;;;;;;;;;;18.60;99.90;;;;;;5054957;28;20306;-67
2021/11/29 11:32:10;;;;;;;;;;;18.60;99.90;;;;;;5052991;28;19935;-71
2021/11/29 11:34:37;;;;;;;;;;;18.60;99.90;;;;;;5053414;28;19912;-74
2021/11/29 11:37:04;;;;;;;;;;;18.60;99.90;;;;;;5051136;28;19919;-74
2021/11/29 11:39:31;;;;;;;;;;;18.60;99.90;;;;;;5053278;28;19913;-69
2021/11/29 11:41:58;;;;;;;;;;;18.60;99.90;;;;;;5052812;28;19920;-76
2021/11/29 11:44:25;;;;;;;;;;;18.60;99.90;;;;;;5054860;28;19920;-72
2021/11/29 11:46:54;;;;;;;;;;;18.60;99.90;;;;;;5052406;28;19921;-75
2021/11/29 11:49:22;;;;;;;;;;;18.70;99.90;;;;;;5054269;28;19925;-72
2021/11/29 11:51:49;;;;;;;;;;;18.70;99.90;;;;;;5053012;28;19919;-74
2021/11/29 11:54:16;;;;;;;;;;;18.70;99.90;;;;;;5050740;28;19962;-72
2021/11/29 11:56:43;;;;;;;;;;;18.70;99.90;;;;;;5052530;28;19913;-75
2021/11/29 11:59:14;;;;;;;;;;;18.70;99.90;;;;;;5053438;28;20011;-72
2021/11/29 12:01:44;;;;;;;;;;;18.70;99.90;;;;;;5051484;28;20007;-71
2021/11/29 12:04:11;;;;;;;;;;;18.70;99.90;;;;;;5054141;28;19916;-73
2021/11/29 12:06:40;;;;;;;;;;;18.70;99.90;;;;;;5052275;28;19913;-73
2021/11/29 12:09:09;;;;;;;;;;;18.70;99.90;;;;;;5068617;28;20318;-70
2021/11/29 12:11:43;;;;;;;;;;;18.70;99.90;;;;;;5069631;28;19913;-71
2021/11/29 12:14:12;;;;;;;;;;;18.70;99.90;;;;;;5071315;28;19923;-75
2021/11/29 12:16:41;;;;;;;;;;;18.60;99.90;;;;;;5069486;28;20101;-70
2021/11/29 12:19:16;;;;;;;;;;;18.70;99.90;;;;;;5069938;28;20418;-74
2021/11/29 12:21:43;;;;;;;;;;;18.70;99.90;;;;;;5070259;28;20387;-76
2021/11/29 12:24:16;;;;;;;;;;;18.70;99.90;;;;;;5071725;28;19998;-72
2021/11/29 12:26:48;;;;;;;;;;;18.70;99.90;;;;;;5069818;28;19921;-74
2021/11/29 12:29:25;;;;;;;;;;;18.60;99.90;;;;;;5069646;28;19924;-72
2021/11/29 12:32:06;;;;;;;;;;;18.70;99.90;;;;;;5061414;28;20584;-72
2021/11/29 12:34:54;;;;;;;;;;;18.70;99.90;;;;;;5069323;28;19927;-70
2021/11/29 12:37:21;;;;;;;;;;;18.70;99.90;;;;;;5073892;28;19913;-73
2021/11/29 12:39:49;;;;;;;;;;;18.70;99.90;;;;;;5070393;28;19920;-71
2021/11/29 12:42:27;;;;;;;;;;;18.60;99.90;;;;;;5071442;28;19913;-70
2021/11/29 12:44:55;;;;;;;;;;;18.60;99.90;;;;;;5070040;28;19913;-70
2021/11/29 12:47:23;;;;;;;;;;;18.70;99.90;;;;;;5077465;28;19965;-64
2021/11/29 12:49:51;;;;;;;;;;;18.70;99.90;;;;;;5070930;28;19917;-71
2021/11/29 12:52:30;;;;;;;;;;;18.70;99.90;;;;;;5069409;28;19912;-75
2021/11/29 12:54:58;;;;;;;;;;;18.70;99.90;;;;;;5069495;28;20287;-71
2021/11/29 12:57:24;;;;;;;;;;;18.70;99.90;;;;;;5069761;28;19952;-68
2021/11/29 12:59:56;;;;;;;;;;;18.70;99.90;;;;;;5069481;28;19920;-68
2021/11/29 13:02:39;;;;;;;;;;;18.70;99.90;;;;;;5069514;28;19997;-72
2021/11/29 13:05:24;;;;;;;;;;;18.70;99.90;;;;;;5078864;28;20375;-71
2021/11/29 13:08:09;;;;;;;;;;;18.70;99.90;;;;;;5069949;28;19928;-70
2021/11/29 13:10:50;;;;;;;;;;;18.70;99.90;;;;;;5055519;28;20004;-72
2021/11/29 13:13:28;;;;;;;;;;;18.60;99.90;;;;;;5050883;28;20264;-72
2021/11/29 13:15:59;;;;;;;;;;;18.60;99.90;;;;;;5068800;28;19920;-70
2021/11/29 13:18:56;;;;;;;;;;;18.60;99.90;;;;;;5062343;28;19917;-71
2021/11/29 13:21:27;;;;;;;;;;;18.60;99.90;;;;;;5077682;28;20426;-74
2021/11/29 13:23:57;;;;;;;;;;;18.60;99.90;;;;;;5080385;28;19916;-70
2021/11/29 13:26:24;;;;;;;;;;;18.60;99.90;;;;;;5071510;28;19916;-74
2021/11/29 13:28:52;;;;;;;;;;;18.60;99.90;;;;;;5069819;28;19932;-70
2021/11/29 13:31:30;;;;;;;;;;;18.60;99.90;;;;;;5070684;28;19922;-74
2021/11/29 13:33:58;;;;;;;;;;;18.60;99.90;;;;;;5069090;28;19916;-67
2021/11/29 13:36:53;;;;;;;;;;;18.60;99.90;;;;;;5059114;28;19998;-76
2021/11/29 13:39:22;;;;;;;;;;;18.60;99.90;;;;;;5052320;28;20286;-73
2021/11/29 13:42:06;;;;;;;;;;;18.60;99.90;;;;;;5073186;28;19999;-71
2021/11/29 13:44:33;;;;;;;;;;;18.60;99.90;;;;;;5067151;28;20385;-75
2021/11/29 13:47:00;;;;;;;;;;;18.60;99.90;;;;;;5069831;28;20011;-68
2021/11/29 13:49:31;;;;;;;;;;;18.60;99.90;;;;;;5069079;28;19929;-75
2021/11/29 13:51:57;;;;;;;;;;;18.60;99.90;;;;;;5059750;28;19913;-73
2021/11/29 13:54:24;;;;;;;;;;;18.60;99.90;;;;;;5077527;28;19920;-69
2021/11/29 13:56:51;;;;;;;;;;;18.60;99.90;;;;;;5075852;28;19920;-75
2021/11/29 13:59:18;;;;;;;;;;;18.60;99.90;;;;;;5075474;28;20374;-76
2021/11/29 14:01:45;;;;;;;;;;;18.60;99.90;;;;;;5069775;28;19966;-68
2021/11/29 14:04:11;;;;;;;;;;;18.50;99.90;;;;;;5070021;28;19916;-71
2021/11/29 14:06:38;;;;;;;;;;;18.60;99.90;;;;;;5069867;28;19922;-76
2021/11/29 14:09:14;;;;;;;;;;;18.60;99.90;;;;;;5077983;28;19924;-72
2021/11/29 14:11:42;;;;;;;;;;;18.60;99.90;;;;;;5067670;28;19919;-69
2021/11/29 14:14:11;;;;;;;;;;;18.60;99.90;;;;;;5068456;28;20003;-69
2021/11/29 14:16:43;;;;;;;;;;;18.60;99.90;;;;;;5068717;28;20286;-72
2021/11/29 14:19:13;;;;;;;;;;;18.60;99.90;;;;;;5069818;28;19916;-69
2021/11/29 14:21:47;;;;;;;;;;;18.60;99.90;;;;;;5068249;28;20335;-75
2021/11/29 14:24:18;;;;;;;;;;;18.60;99.90;;;;;;5068401;28;20019;-68